Time;durP1;ratioP1;P1;durP2;ratioP2;P2;SDS_P1;SDS_P2;PMS_P1;PMS_P2;Temp;Humidity;BMP_temperature;BMP_pressure;BME280_temperature;BME280_humidity;BME280_pressure;Samples;Min_cycle;Max_cycle;Signal;HPM_P1;HPM_P2
2020/12/14 00:00:07;;;;;;;0.30;0.30;;;4.90;99.90;;;;;;5030916;28;20166;-72
2020/12/14 00:02:33;;;;;;;0.30;0.30;;;4.90;99.90;;;;;;5040948;28;20194;-72
2020/12/14 00:04:59;;;;;;;0.30;0.30;;;4.90;99.90;;;;;;5036796;28;20667;-71
2020/12/14 00:07:25;;;;;;;0.30;0.30;;;4.90;99.90;;;;;;5047994;28;20197;-72
2020/12/14 00:09:50;;;;;;;0.30;0.30;;;5.00;99.90;;;;;;5050612;28;20162;-72
2020/12/14 00:12:16;;;;;;;1.17;1.07;;;4.90;99.90;;;;;;5035668;28;20672;-71
2020/12/14 00:14:42;;;;;;;0.30;0.30;;;4.80;99.90;;;;;;5032676;28;20773;-72
2020/12/14 00:17:07;;;;;;;2.15;2.05;;;4.80;99.90;;;;;;5046393;28;20258;-71
2020/12/14 00:19:33;;;;;;;0.30;0.20;;;4.60;99.90;;;;;;5052619;28;20162;-70
2020/12/14 00:21:59;;;;;;;0.30;0.30;;;4.60;99.90;;;;;;5038757;28;20248;-72
2020/12/14 00:24:24;;;;;;;0.30;0.30;;;4.50;99.90;;;;;;5052416;28;20170;-71
2020/12/14 00:26:50;;;;;;;0.30;0.30;;;4.40;99.90;;;;;;5040977;28;20506;-72
2020/12/14 00:29:16;;;;;;;0.30;0.30;;;4.40;99.90;;;;;;5032612;28;20241;-71
2020/12/14 00:31:42;;;;;;;2.17;2.05;;;4.30;99.90;;;;;;5042146;28;20193;-72
2020/12/14 00:34:08;;;;;;;0.30;0.30;;;4.20;99.90;;;;;;5056176;28;20219;-71
2020/12/14 00:36:33;;;;;;;0.30;0.30;;;4.10;99.90;;;;;;5046058;28;20198;-71
2020/12/14 00:38:59;;;;;;;0.30;0.30;;;4.00;99.90;;;;;;5043820;28;20170;-71
2020/12/14 00:41:25;;;;;;;0.63;0.63;;;4.00;99.90;;;;;;5048036;28;20198;-71
2020/12/14 00:43:50;;;;;;;1.33;1.33;;;3.90;99.90;;;;;;5035908;28;20732;-71
2020/12/14 00:46:17;;;;;;;0.30;0.30;;;3.80;99.90;;;;;;5041042;28;20231;-71
2020/12/14 00:48:43;;;;;;;0.57;0.57;;;3.70;99.90;;;;;;5055696;28;20173;-71
2020/12/14 00:51:09;;;;;;;0.30;0.30;;;3.70;99.90;;;;;;5049635;28;20174;-70
2020/12/14 00:53:35;;;;;;;0.40;0.40;;;3.70;99.90;;;;;;5035645;28;20186;-70
2020/12/14 00:56:05;;;;;;;0.30;0.30;;;3.60;99.90;;;;;;5037784;28;20236;-72
2020/12/14 00:58:31;;;;;;;0.30;0.30;;;3.60;99.90;;;;;;5051594;28;20239;-71
2020/12/14 01:00:57;;;;;;;0.30;0.30;;;3.60;99.90;;;;;;5052980;28;20189;-70
2020/12/14 01:03:23;;;;;;;0.30;0.30;;;3.50;99.90;;;;;;5035618;28;20249;-70
2020/12/14 01:05:52;;;;;;;0.47;0.47;;;3.60;99.90;;;;;;5035458;28;20201;-71
2020/12/14 01:08:21;;;;;;;0.40;0.40;;;3.60;99.90;;;;;;5055553;28;20952;-70
2020/12/14 01:10:49;;;;;;;0.50;0.50;;;3.60;99.90;;;;;;5055061;28;20173;-69
2020/12/14 01:13:16;;;;;;;0.30;0.30;;;3.60;99.90;;;;;;5035541;28;20285;-69
2020/12/14 01:15:42;;;;;;;0.30;0.30;;;3.60;99.90;;;;;;5035293;28;20302;-71
2020/12/14 01:18:09;;;;;;;0.30;0.30;;;3.60;99.90;;;;;;5050830;28;20199;-72
2020/12/14 01:20:35;;;;;;;0.30;0.28;;;3.60;99.90;;;;;;5035158;28;20166;-70
2020/12/14 01:23:00;;;;;;;0.30;0.30;;;3.60;99.90;;;;;;5051458;28;20248;-69
2020/12/14 01:25:26;;;;;;;0.30;0.30;;;3.60;99.90;;;;;;5055326;28;20411;-70
2020/12/14 01:27:52;;;;;;;0.30;0.30;;;3.60;99.90;;;;;;5040169;28;20190;-70
2020/12/14 01:30:17;;;;;;;0.30;0.30;;;3.60;99.90;;;;;;5034933;28;20276;-69
2020/12/14 01:32:43;;;;;;;0.40;0.40;;;3.60;99.90;;;;;;5046248;28;20559;-69
2020/12/14 01:35:08;;;;;;;0.50;0.50;;;3.60;99.90;;;;;;5055026;28;20279;-69
2020/12/14 01:37:34;;;;;;;0.30;0.30;;;3.60;99.90;;;;;;5043328;28;20312;-70
2020/12/14 01:40:00;;;;;;;0.40;0.40;;;3.60;99.90;;;;;;5034592;28;20593;-69
2020/12/14 01:42:25;;;;;;;0.30;0.30;;;3.60;99.90;;;;;;5038374;28;20216;-69
2020/12/14 01:44:51;;;;;;;0.30;0.30;;;3.70;99.90;;;;;;5034414;28;20633;-69
2020/12/14 01:47:38;;;;;;;0.30;0.30;;;3.70;99.90;;;;;;5042498;28;20264;-70
2020/12/14 01:50:05;;;;;;;0.30;0.30;;;3.70;99.90;;;;;;5054317;28;20589;-69
2020/12/14 01:52:31;;;;;;;0.50;0.50;;;3.70;99.90;;;;;;5044183;28;20259;-70
2020/12/14 01:55:00;;;;;;;1.13;1.02;;;3.60;99.90;;;;;;5034913;28;20608;-71
2020/12/14 01:57:27;;;;;;;0.30;0.30;;;3.60;99.90;;;;;;5045340;28;20219;-70
2020/12/14 01:59:55;;;;;;;0.30;0.30;;;3.60;99.90;;;;;;5054164;28;20247;-70
2020/12/14 02:02:21;;;;;;;0.30;0.20;;;3.60;99.90;;;;;;5043243;28;20190;-70
2020/12/14 02:04:47;;;;;;;0.30;0.30;;;3.60;99.90;;;;;;5035400;28;20705;-69
2020/12/14 02:07:13;;;;;;;0.30;0.30;;;3.70;99.90;;;;;;5053261;28;20173;-69
2020/12/14 02:09:38;;;;;;;0.40;0.40;;;3.70;99.90;;;;;;5054120;28;20218;-69
2020/12/14 02:12:04;;;;;;;0.40;0.40;;;3.70;99.90;;;;;;5039159;28;20196;-70
2020/12/14 02:14:29;;;;;;;0.30;0.30;;;3.70;99.90;;;;;;5053829;28;20177;-68
2020/12/14 02:16:55;;;;;;;0.30;0.30;;;3.70;99.90;;;;;;5036211;28;20174;-69
2020/12/14 02:19:21;;;;;;;0.40;0.40;;;3.70;99.90;;;;;;5034345;28;20166;-70
2020/12/14 02:21:49;;;;;;;0.37;0.37;;;3.70;99.90;;;;;;5050404;28;20663;-70
2020/12/14 02:24:16;;;;;;;0.30;0.30;;;3.70;99.90;;;;;;5054094;28;20490;-69
2020/12/14 02:26:48;;;;;;;0.30;0.30;;;3.60;99.90;;;;;;5043663;28;20181;-70
2020/12/14 02:29:20;;;;;;;0.40;0.40;;;3.60;99.90;;;;;;5053725;28;20177;-69
2020/12/14 02:31:46;;;;;;;0.30;0.30;;;3.60;99.90;;;;;;5037618;28;20212;-69
2020/12/14 02:34:12;;;;;;;0.50;0.50;;;3.60;99.90;;;;;;5034976;28;20185;-69
2020/12/14 02:36:39;;;;;;;0.30;0.30;;;3.60;99.90;;;;;;5032819;28;20315;-69
2020/12/14 02:39:05;;;;;;;0.40;0.40;;;3.50;99.90;;;;;;5035240;28;20397;-69
2020/12/14 02:41:31;;;;;;;0.40;0.40;;;3.60;99.90;;;;;;5051816;28;20606;-68
2020/12/14 02:43:57;;;;;;;0.33;0.33;;;3.60;99.90;;;;;;5040064;28;20180;-69
2020/12/14 02:46:22;;;;;;;0.30;0.30;;;3.60;99.90;;;;;;5033956;28;20178;-68
2020/12/14 02:48:48;;;;;;;0.40;0.40;;;3.60;99.90;;;;;;5045324;28;20420;-68
2020/12/14 02:51:18;;;;;;;0.40;0.40;;;3.60;99.90;;;;;;5051555;28;20204;-68
2020/12/14 02:53:44;;;;;;;0.38;0.38;;;3.70;99.90;;;;;;5041570;28;20229;-68
2020/12/14 02:56:09;;;;;;;0.40;0.40;;;3.70;99.90;;;;;;5032781;28;20641;-69
2020/12/14 02:58:35;;;;;;;0.60;0.60;;;3.70;99.90;;;;;;5043156;28;20419;-69
2020/12/14 03:01:01;;;;;;;0.30;0.30;;;3.70;99.90;;;;;;5053020;28;20173;-66
2020/12/14 03:03:26;;;;;;;0.30;0.30;;;3.70;99.90;;;;;;5045168;28;20182;-68
2020/12/14 03:05:52;;;;;;;1.07;1.07;;;3.80;99.90;;;;;;5033464;28;20193;-67
2020/12/14 03:08:17;;;;;;;0.40;0.40;;;3.80;99.90;;;;;;5039530;28;20199;-67
2020/12/14 03:10:43;;;;;;;0.40;0.40;;;3.80;99.90;;;;;;5053047;28;20305;-67
2020/12/14 03:13:09;;;;;;;0.40;0.40;;;3.80;99.90;;;;;;5051450;28;20217;-67
2020/12/14 03:15:34;;;;;;;0.40;0.40;;;3.70;99.90;;;;;;5053240;28;20591;-67
2020/12/14 03:18:00;;;;;;;0.40;0.40;;;3.70;99.90;;;;;;5050066;28;20197;-67
2020/12/14 03:20:25;;;;;;;1.13;1.13;;;3.70;99.90;;;;;;5034475;28;20252;-67
2020/12/14 03:22:51;;;;;;;0.40;0.40;;;3.70;99.90;;;;;;5033941;28;20324;-66
2020/12/14 03:25:16;;;;;;;0.30;0.30;;;3.60;99.90;;;;;;5053101;28;20176;-67
2020/12/14 03:27:43;;;;;;;0.40;0.40;;;3.60;99.90;;;;;;5053294;28;20208;-66
2020/12/14 03:30:10;;;;;;;0.50;0.50;;;3.60;99.90;;;;;;5051663;28;20173;-67
2020/12/14 03:32:35;;;;;;;0.40;0.40;;;3.50;99.90;;;;;;5052951;28;20189;-67
2020/12/14 03:35:01;;;;;;;0.40;0.40;;;3.50;99.90;;;;;;5034033;28;20722;-68
2020/12/14 03:37:28;;;;;;;0.30;0.30;;;3.40;99.90;;;;;;5033514;28;20174;-68
2020/12/14 03:39:53;;;;;;;0.40;0.40;;;3.40;99.90;;;;;;5049519;28;20490;-67
2020/12/14 03:42:19;;;;;;;0.40;0.40;;;3.40;99.90;;;;;;5052917;28;20280;-67
2020/12/14 03:44:45;;;;;;;2.65;1.40;;;3.30;99.90;;;;;;5036029;28;20174;-67
2020/12/14 03:47:11;;;;;;;0.40;0.40;;;3.30;99.90;;;;;;5033383;28;20224;-67
2020/12/14 03:49:36;;;;;;;0.30;0.30;;;3.30;99.90;;;;;;5033816;28;20201;-67
2020/12/14 03:52:02;;;;;;;0.30;0.30;;;3.30;99.90;;;;;;5032585;28;20564;-67
2020/12/14 03:54:28;;;;;;;0.40;0.40;;;3.30;99.90;;;;;;5034261;28;20170;-68
2020/12/14 03:56:57;;;;;;;0.40;0.40;;;3.40;99.90;;;;;;5033047;28;20791;-67
2020/12/14 03:59:23;;;;;;;0.40;0.40;;;3.30;99.90;;;;;;5047392;28;20177;-66
2020/12/14 04:01:54;;;;;;;0.40;0.40;;;3.40;99.90;;;;;;5052252;28;20181;-68
2020/12/14 04:04:20;;;;;;;0.40;0.40;;;3.40;99.90;;;;;;5037691;28;20174;-68
2020/12/14 04:06:45;;;;;;;0.70;0.70;;;3.40;99.90;;;;;;5033352;28;20162;-67
2020/12/14 04:09:11;;;;;;;0.30;0.30;;;3.40;99.90;;;;;;5049552;28;20431;-67
2020/12/14 04:11:36;;;;;;;0.40;0.40;;;3.30;99.90;;;;;;5055968;28;20280;-68
2020/12/14 04:14:02;;;;;;;0.57;0.57;;;3.30;99.90;;;;;;5043913;28;20174;-67
2020/12/14 04:16:28;;;;;;;3.90;1.83;;;3.30;99.90;;;;;;5037069;28;20206;-67
2020/12/14 04:18:54;;;;;;;0.50;0.50;;;3.30;99.90;;;;;;5037618;28;20178;-67
2020/12/14 04:21:19;;;;;;;0.98;0.95;;;3.20;99.90;;;;;;5035955;28;20182;-67
2020/12/14 04:23:45;;;;;;;0.40;0.40;;;3.10;99.90;;;;;;5045658;28;20173;-67
2020/12/14 04:26:14;;;;;;;0.30;0.30;;;3.10;99.90;;;;;;5056219;28;20181;-66
2020/12/14 04:28:40;;;;;;;0.40;0.40;;;3.00;99.90;;;;;;5047636;28;20174;-68
2020/12/14 04:31:05;;;;;;;0.40;0.40;;;3.00;99.90;;;;;;5035791;28;20169;-67
2020/12/14 04:33:31;;;;;;;0.30;0.30;;;3.00;99.90;;;;;;5043268;28;20182;-68
2020/12/14 04:35:57;;;;;;;0.30;0.30;;;3.00;99.90;;;;;;5056033;28;20686;-68
2020/12/14 04:38:23;;;;;;;0.30;0.30;;;3.00;99.90;;;;;;5050164;28;20244;-67
2020/12/14 04:40:48;;;;;;;0.30;0.30;;;3.00;99.90;;;;;;5035715;28;20179;-68
2020/12/14 04:43:15;;;;;;;0.50;0.50;;;3.00;99.90;;;;;;5038045;28;20515;-67
2020/12/14 04:45:43;;;;;;;0.30;0.30;;;3.00;99.90;;;;;;5048813;28;20190;-68
2020/12/14 04:48:09;;;;;;;0.30;0.30;;;3.00;99.90;;;;;;5016214;28;20206;-67
2020/12/14 04:50:39;;;;;;;0.80;0.80;;;3.00;99.90;;;;;;5015797;28;20175;-67
2020/12/14 04:53:04;;;;;;;0.30;0.30;;;3.00;99.90;;;;;;5054272;28;20466;-69
2020/12/14 04:55:35;;;;;;;3.93;1.57;;;3.00;99.90;;;;;;5055831;28;20194;-67
2020/12/14 04:58:02;;;;;;;0.40;0.40;;;3.00;99.90;;;;;;5037157;28;20253;-68
2020/12/14 05:00:27;;;;;;;0.30;0.30;;;3.00;99.90;;;;;;5035203;28;20178;-67
2020/12/14 05:02:55;;;;;;;0.40;0.40;;;3.00;99.90;;;;;;5052738;28;20193;-68
2020/12/14 05:05:22;;;;;;;0.30;0.30;;;2.90;99.90;;;;;;5036042;28;20269;-67
2020/12/14 05:07:47;;;;;;;0.47;0.47;;;2.90;99.90;;;;;;5051111;28;20181;-68
2020/12/14 05:10:13;;;;;;;0.40;0.40;;;2.90;99.90;;;;;;5055379;28;20184;-67
2020/12/14 05:12:44;;;;;;;0.40;0.40;;;2.90;99.90;;;;;;5039704;28;20202;-68
2020/12/14 05:15:20;;;;;;;0.40;0.40;;;2.90;99.90;;;;;;5035343;28;20206;-67
2020/12/14 05:17:46;;;;;;;0.40;0.40;;;2.90;99.90;;;;;;5049646;28;20181;-67
2020/12/14 05:20:14;;;;;;;1.75;1.25;;;2.90;99.90;;;;;;5032816;28;20166;-66
2020/12/14 05:22:57;;;;;;;0.40;0.40;;;2.80;99.90;;;;;;5034282;28;20225;-66
2020/12/14 05:25:23;;;;;;;3.53;2.70;;;2.70;99.90;;;;;;5034403;28;20187;-67
2020/12/14 05:28:03;;;;;;;1.17;1.17;;;2.80;99.90;;;;;;5048886;28;20202;-68
2020/12/14 05:30:45;;;;;;;0.40;0.40;;;2.80;99.90;;;;;;5053949;28;20166;-66
2020/12/14 05:33:13;;;;;;;0.40;0.40;;;2.70;99.90;;;;;;5041968;28;20189;-66
2020/12/14 05:35:41;;;;;;;0.40;0.40;;;2.60;99.90;;;;;;5054800;28;20197;-67
2020/12/14 05:38:24;;;;;;;0.40;0.40;;;2.60;99.90;;;;;;5038562;28;20212;-66
2020/12/14 05:41:08;;;;;;;0.40;0.40;;;2.60;99.90;;;;;;5034636;28;20166;-67
2020/12/14 05:43:34;;;;;;;0.40;0.40;;;2.50;99.90;;;;;;5014693;28;20191;-68
2020/12/14 05:46:15;;;;;;;0.40;0.40;;;2.50;99.90;;;;;;5015082;28;20186;-67
2020/12/14 05:48:42;;;;;;;0.30;0.30;;;2.60;99.90;;;;;;5026248;28;20256;-68
2020/12/14 05:51:09;;;;;;;0.38;0.38;;;2.50;99.90;;;;;;5053805;28;20335;-67
2020/12/14 05:53:39;;;;;;;1.25;1.23;;;2.50;99.90;;;;;;5034543;28;20261;-66
2020/12/14 05:56:07;;;;;;;0.30;0.30;;;2.50;99.90;;;;;;5034492;28;20608;-68
2020/12/14 05:58:34;;;;;;;0.40;0.40;;;2.40;99.90;;;;;;5053548;28;20212;-67
2020/12/14 06:01:07;;;;;;;0.40;0.40;;;2.40;99.90;;;;;;5052408;28;20165;-66
2020/12/14 06:03:34;;;;;;;0.30;0.30;;;2.40;99.90;;;;;;5033113;28;20170;-65
2020/12/14 06:06:10;;;;;;;0.30;0.30;;;2.40;99.90;;;;;;5035313;28;20178;-67
2020/12/14 06:08:45;;;;;;;0.30;0.30;;;2.40;99.90;;;;;;5054550;28;20169;-68
2020/12/14 06:11:15;;;;;;;0.40;0.40;;;2.40;99.90;;;;;;5051706;28;20304;-68
2020/12/14 06:13:58;;;;;;;0.30;0.30;;;2.40;99.90;;;;;;5052666;28;20505;-68
2020/12/14 06:16:32;;;;;;;0.32;0.32;;;2.40;99.90;;;;;;5052581;28;20212;-68
2020/12/14 06:18:58;;;;;;;0.60;0.60;;;2.40;99.90;;;;;;5041516;28;20184;-69
2020/12/14 06:21:25;;;;;;;0.40;0.40;;;2.30;99.90;;;;;;5038324;28;20555;-68
2020/12/14 06:23:52;;;;;;;0.30;0.30;;;2.40;99.90;;;;;;5054031;28;20173;-66
2020/12/14 06:26:22;;;;;;;0.30;0.30;;;2.40;99.90;;;;;;5052472;28;20177;-66
2020/12/14 06:28:52;;;;;;;0.40;0.40;;;2.40;99.90;;;;;;5054135;28;20181;-66
2020/12/14 06:31:31;;;;;;;0.40;0.40;;;2.40;99.90;;;;;;5049272;28;20285;-67
2020/12/14 06:33:57;;;;;;;0.30;0.30;;;2.40;99.90;;;;;;5033720;28;20181;-67
2020/12/14 06:36:24;;;;;;;0.40;0.40;;;2.50;99.90;;;;;;5034929;28;20217;-68
2020/12/14 06:38:54;;;;;;;0.40;0.40;;;2.40;99.90;;;;;;5033507;28;20181;-66
2020/12/14 06:41:23;;;;;;;0.40;0.40;;;2.50;99.90;;;;;;5033077;28;20261;-66
2020/12/14 06:44:04;;;;;;;0.47;0.47;;;2.50;99.90;;;;;;5033324;28;20231;-67
2020/12/14 06:46:32;;;;;;;0.38;0.38;;;2.50;99.90;;;;;;5033521;28;20177;-67
2020/12/14 06:48:59;;;;;;;0.40;0.40;;;2.60;99.90;;;;;;5044492;28;20312;-66
2020/12/14 06:51:26;;;;;;;0.40;0.40;;;2.50;99.90;;;;;;5034295;28;20622;-66
2020/12/14 06:53:54;;;;;;;0.50;0.50;;;2.50;99.90;;;;;;5033646;28;20541;-66
2020/12/14 06:56:28;;;;;;;0.30;0.30;;;2.50;99.90;;;;;;5033578;28;20605;-66
2020/12/14 06:58:55;;;;;;;0.30;0.30;;;2.50;99.90;;;;;;5033088;28;20257;-65
2020/12/14 07:01:40;;;;;;;0.30;0.30;;;2.40;99.90;;;;;;5033041;28;20271;-68
2020/12/14 07:04:09;;;;;;;0.40;0.40;;;2.40;99.90;;;;;;5028490;28;20174;-70
2020/12/14 07:06:35;;;;;;;0.30;0.30;;;2.40;99.90;;;;;;5032877;28;20178;-71
2020/12/14 07:09:24;;;;;;;0.30;0.30;;;2.30;99.90;;;;;;5032223;28;20181;-70
2020/12/14 07:11:49;;;;;;;0.40;0.40;;;2.30;99.90;;;;;;5041724;28;20213;-70
2020/12/14 07:14:28;;;;;;;0.30;0.30;;;2.30;99.90;;;;;;5051980;28;20177;-70
2020/12/14 07:16:59;;;;;;;0.40;0.40;;;2.20;99.90;;;;;;5012291;28;20194;-69
2020/12/14 07:19:35;;;;;;;0.40;0.40;;;2.20;99.90;;;;;;5014494;28;20155;-68
2020/12/14 07:22:01;;;;;;;0.70;0.70;;;2.20;99.90;;;;;;5052066;28;20196;-69
2020/12/14 07:24:35;;;;;;;0.30;0.30;;;2.20;99.90;;;;;;5052110;28;20617;-69
2020/12/14 07:27:02;;;;;;;0.30;0.30;;;2.20;99.90;;;;;;5033360;28;20185;-69
2020/12/14 07:29:27;;;;;;;0.50;0.50;;;2.30;99.90;;;;;;5034388;28;20224;-69
2020/12/14 07:31:53;;;;;;;0.30;0.30;;;2.20;99.90;;;;;;5032738;28;20190;-69
2020/12/14 07:34:19;;;;;;;0.30;0.30;;;2.30;99.90;;;;;;5044462;28;20416;-68
2020/12/14 07:36:45;;;;;;;0.67;0.67;;;2.50;99.90;;;;;;5040235;28;20982;-69
2020/12/14 07:39:10;;;;;;;0.40;0.40;;;2.70;99.90;;;;;;5033192;28;20162;-69
2020/12/14 07:41:36;;;;;;;0.40;0.40;;;2.80;99.90;;;;;;5043439;28;20189;-69
2020/12/14 07:44:04;;;;;;;0.30;0.30;;;2.90;99.90;;;;;;5057230;28;20173;-68
2020/12/14 07:46:35;;;;;;;0.40;0.40;;;3.00;99.90;;;;;;5047721;28;20178;-64
2020/12/14 07:49:05;;;;;;;0.30;0.30;;;2.90;99.90;;;;;;5049478;28;20193;-64
2020/12/14 07:51:33;;;;;;;0.30;0.30;;;2.90;99.90;;;;;;5054420;28;20236;-64
2020/12/14 07:54:15;;;;;;;0.50;0.50;;;3.00;99.90;;;;;;5036648;28;20190;-64
2020/12/14 07:57:01;;;;;;;0.30;0.30;;;3.10;99.90;;;;;;5036543;28;20204;-64
2020/12/14 07:59:29;;;;;;;0.30;0.30;;;3.10;99.90;;;;;;5035606;28;20174;-64
2020/12/14 08:01:56;;;;;;;0.40;0.40;;;3.20;99.90;;;;;;5035350;28;20194;-64
2020/12/14 08:04:34;;;;;;;0.85;0.85;;;3.30;99.90;;;;;;5045876;28;20216;-63
2020/12/14 08:07:01;;;;;;;0.30;0.30;;;3.30;99.90;;;;;;5056430;28;20705;-64
2020/12/14 08:09:32;;;;;;;0.30;0.30;;;3.40;99.90;;;;;;5049382;28;20634;-65
2020/12/14 08:11:58;;;;;;;0.30;0.30;;;3.50;99.90;;;;;;5055971;28;20272;-65
2020/12/14 08:14:25;;;;;;;0.40;0.40;;;3.70;99.90;;;;;;5046470;28;20182;-65
2020/12/14 08:16:51;;;;;;;0.30;0.30;;;3.90;99.90;;;;;;5046678;28;20242;-65
2020/12/14 08:19:22;;;;;;;0.30;0.30;;;4.30;99.90;;;;;;5054550;28;20212;-65
2020/12/14 08:22:09;;;;;;;0.30;0.30;;;4.60;99.90;;;;;;5053457;28;20190;-66
2020/12/14 08:24:37;;;;;;;0.30;0.30;;;5.20;99.90;;;;;;5035961;28;20237;-63
2020/12/14 08:27:16;;;;;;;0.30;0.30;;;5.80;99.90;;;;;;5048784;28;20663;-64
2020/12/14 08:30:01;;;;;;;0.30;0.30;;;6.60;99.90;;;;;;5054742;28;20550;-66
2020/12/14 08:32:27;;;;;;;0.55;0.55;;;7.60;99.90;;;;;;5034086;28;20217;-65
2020/12/14 08:34:52;;;;;;;0.87;0.87;;;8.40;99.90;;;;;;5042911;28;20220;-66
2020/12/14 08:37:19;;;;;;;0.30;0.20;;;9.10;99.90;;;;;;5041932;28;20170;-65
2020/12/14 08:39:59;;;;;;;0.30;0.20;;;9.90;99.90;;;;;;5055666;28;20591;-65
2020/12/14 08:42:29;;;;;;;0.30;0.30;;;10.60;99.90;;;;;;5049040;28;20286;-65
2020/12/14 08:45:09;;;;;;;0.70;0.70;;;11.10;99.90;;;;;;5035626;28;20443;-67
2020/12/14 08:47:39;;;;;;;2.13;1.60;;;11.60;99.90;;;;;;5052253;28;20986;-65
2020/12/14 08:50:07;;;;;;;0.30;0.30;;;11.90;99.90;;;;;;5053639;28;20506;-65
2020/12/14 08:52:33;;;;;;;0.30;0.30;;;11.90;99.00;;;;;;5037569;28;20563;-66
2020/12/14 08:54:59;;;;;;;0.30;0.20;;;12.10;99.40;;;;;;5034939;28;20492;-66
2020/12/14 08:57:26;;;;;;;0.40;0.40;;;12.10;98.20;;;;;;5050999;28;20180;-69
2020/12/14 09:00:21;;;;;;;0.30;0.30;;;12.10;97.50;;;;;;5053669;28;20455;-67
2020/12/14 09:02:57;;;;;;;0.30;0.20;;;12.20;98.50;;;;;;5036050;28;20451;-66
2020/12/14 09:05:23;;;;;;;0.40;0.40;;;12.60;98.10;;;;;;5049528;28;20424;-67
2020/12/14 09:07:49;;;;;;;0.30;0.30;;;12.50;96.50;;;;;;5055067;28;20968;-65
2020/12/14 09:10:28;;;;;;;0.40;0.40;;;12.50;96.60;;;;;;5038301;28;20416;-67
2020/12/14 09:13:03;;;;;;;1.60;1.50;;;12.80;97.40;;;;;;5036640;28;20248;-66
2020/12/14 09:15:30;;;;;;;0.40;0.40;;;13.10;96.20;;;;;;5049828;28;20465;-64
2020/12/14 09:18:05;;;;;;;0.30;0.30;;;13.40;95.60;;;;;;5034932;28;20800;-67
2020/12/14 09:20:33;;;;;;;0.60;0.60;;;13.40;95.30;;;;;;5040317;28;20461;-66
2020/12/14 09:22:59;;;;;;;0.60;0.60;;;13.50;95.40;;;;;;5040275;28;20446;-65
2020/12/14 09:25:25;;;;;;;0.40;0.40;;;13.80;95.40;;;;;;5039172;28;20836;-67
2020/12/14 09:27:50;;;;;;;0.60;0.60;;;14.00;94.30;;;;;;5054362;28;20938;-64
2020/12/14 09:30:16;;;;;;;0.70;0.40;;;14.30;94.10;;;;;;5034855;28;20177;-65
2020/12/14 09:32:42;;;;;;;1.40;0.67;;;14.40;93.80;;;;;;5034985;28;20918;-65
2020/12/14 09:35:07;;;;;;;0.40;0.40;;;14.40;92.90;;;;;;5035353;28;20230;-66
2020/12/14 09:37:33;;;;;;;0.30;0.30;;;14.30;93.30;;;;;;5037353;28;20170;-66
2020/12/14 09:40:01;;;;;;;0.93;0.77;;;14.30;93.20;;;;;;5034504;28;20173;-66
2020/12/14 09:42:28;;;;;;;0.30;0.30;;;14.30;92.70;;;;;;5033614;28;20198;-66
2020/12/14 09:44:54;;;;;;;0.30;0.20;;;14.10;93.10;;;;;;5034793;28;20423;-68
2020/12/14 09:47:19;;;;;;;0.30;0.20;;;14.10;93.30;;;;;;5034413;28;20420;-67
2020/12/14 09:49:45;;;;;;;0.87;0.87;;;14.10;92.90;;;;;;5038249;28;20246;-67
2020/12/14 09:52:11;;;;;;;0.30;0.30;;;14.00;93.00;;;;;;5054360;28;20284;-64
2020/12/14 09:54:36;;;;;;;0.40;0.40;;;13.90;93.30;;;;;;5042063;28;20651;-65
2020/12/14 09:57:02;;;;;;;0.30;0.30;;;13.90;94.10;;;;;;5034060;28;20254;-65
2020/12/14 09:59:27;;;;;;;0.30;0.30;;;14.10;93.50;;;;;;5042596;28;20662;-64
2020/12/14 10:01:53;;;;;;;0.30;0.30;;;14.00;93.00;;;;;;5053702;28;20218;-66
2020/12/14 10:04:19;;;;;;;0.50;0.50;;;13.70;93.10;;;;;;5045136;28;20176;-66
2020/12/14 10:06:48;;;;;;;0.30;0.30;;;13.60;93.80;;;;;;5041229;28;20263;-65
2020/12/14 10:09:14;;;;;;;0.40;0.40;;;13.60;94.20;;;;;;5036026;28;20186;-66
2020/12/14 10:11:40;;;;;;;0.30;0.30;;;13.70;93.60;;;;;;5033430;28;20475;-68
2020/12/14 10:14:05;;;;;;;1.07;1.00;;;13.60;93.40;;;;;;5046644;28;20831;-65
2020/12/14 10:16:31;;;;;;;1.03;0.93;;;13.50;93.90;;;;;;5042822;28;20464;-65
2020/12/14 10:18:58;;;;;;;0.30;0.20;;;13.60;94.10;;;;;;5034283;28;20293;-64
2020/12/14 10:21:24;;;;;;;0.50;0.50;;;13.30;93.80;;;;;;5042897;28;20190;-65
2020/12/14 10:23:49;;;;;;;0.30;0.30;;;12.80;94.50;;;;;;5035110;28;20431;-64
2020/12/14 10:26:17;;;;;;;0.60;0.60;;;12.70;94.80;;;;;;5032878;28;20248;-66
2020/12/14 10:28:42;;;;;;;0.30;0.30;;;12.40;94.80;;;;;;5034237;28;20177;-66
2020/12/14 10:31:08;;;;;;;0.67;0.67;;;12.00;95.50;;;;;;5033717;28;20762;-66
2020/12/14 10:33:34;;;;;;;0.63;0.63;;;11.70;95.60;;;;;;5033606;28;20172;-64
2020/12/14 10:36:08;;;;;;;0.30;0.30;;;11.40;96.30;;;;;;5034009;28;20454;-66
2020/12/14 10:38:34;;;;;;;0.43;0.43;;;11.00;97.00;;;;;;5034057;28;20414;-66
2020/12/14 10:40:59;;;;;;;0.40;0.30;;;10.80;97.40;;;;;;5033353;28;20409;-66
2020/12/14 10:43:26;;;;;;;0.30;0.20;;;10.60;97.90;;;;;;5034668;28;20233;-64
2020/12/14 10:45:51;;;;;;;0.30;0.30;;;10.40;98.60;;;;;;5033542;28;20272;-65
2020/12/14 10:48:17;;;;;;;0.40;0.40;;;10.20;99.00;;;;;;5033896;28;20224;-65
2020/12/14 10:50:42;;;;;;;0.40;0.40;;;10.00;99.10;;;;;;5033312;28;20691;-65
2020/12/14 10:53:08;;;;;;;0.30;0.30;;;9.90;99.90;;;;;;5033615;28;20271;-65
2020/12/14 10:55:34;;;;;;;0.70;0.70;;;9.80;99.90;;;;;;5033677;28;20206;-65
2020/12/14 10:57:59;;;;;;;0.40;0.40;;;9.70;99.90;;;;;;5033431;28;20235;-65
2020/12/14 11:00:25;;;;;;;0.30;0.30;;;9.50;99.90;;;;;;5033143;28;20257;-65
2020/12/14 11:02:50;;;;;;;0.50;0.50;;;9.50;99.90;;;;;;5033688;28;20235;-65
2020/12/14 11:05:16;;;;;;;0.30;0.30;;;9.40;99.90;;;;;;5033494;28;20205;-67
2020/12/14 11:07:42;;;;;;;0.40;0.40;;;9.40;99.90;;;;;;5033440;28;20189;-65
2020/12/14 11:10:09;;;;;;;0.40;0.40;;;9.40;99.90;;;;;;5033225;28;20629;-65
2020/12/14 11:12:35;;;;;;;0.30;0.30;;;9.30;99.90;;;;;;5039893;28;20564;-71
2020/12/14 11:15:01;;;;;;;0.30;0.30;;;9.20;99.90;;;;;;5040849;28;20181;-69
2020/12/14 11:17:26;;;;;;;0.30;0.23;;;9.20;99.90;;;;;;5048116;28;20416;-64
2020/12/14 11:19:52;;;;;;;0.30;0.20;;;9.10;99.90;;;;;;5032685;28;20181;-64
2020/12/14 11:22:18;;;;;;;0.30;0.30;;;9.10;99.90;;;;;;5034479;28;20193;-64
2020/12/14 11:24:44;;;;;;;1.07;0.83;;;9.10;99.90;;;;;;5045802;28;20228;-64
2020/12/14 11:27:09;;;;;;;0.30;0.30;;;9.20;99.90;;;;;;5034166;28;21968;-64
2020/12/14 11:29:35;;;;;;;0.40;0.40;;;9.20;99.90;;;;;;5032687;28;20170;-64
2020/12/14 11:32:01;;;;;;;0.30;0.30;;;9.30;99.90;;;;;;5042203;28;20202;-65
2020/12/14 11:34:27;;;;;;;0.40;0.40;;;9.30;99.90;;;;;;5033160;28;20200;-66
2020/12/14 11:36:52;;;;;;;1.80;1.70;;;9.30;99.90;;;;;;5033244;28;20456;-65
2020/12/14 11:39:18;;;;;;;0.30;0.30;;;9.40;99.90;;;;;;5043464;28;20177;-64
2020/12/14 11:41:48;;;;;;;0.37;0.37;;;9.40;99.90;;;;;;5037624;28;20198;-64
2020/12/14 11:44:15;;;;;;;0.32;0.32;;;9.40;99.90;;;;;;5032949;28;20463;-64
2020/12/14 11:46:42;;;;;;;0.30;0.20;;;9.40;99.90;;;;;;5034101;28;20182;-64
2020/12/14 11:49:07;;;;;;;0.30;0.30;;;9.30;99.90;;;;;;5033006;28;20181;-64
2020/12/14 11:51:36;;;;;;;0.30;0.30;;;9.30;99.90;;;;;;5043933;28;20239;-62
2020/12/14 11:54:01;;;;;;;0.43;0.43;;;9.20;99.90;;;;;;5045807;28;20198;-64
2020/12/14 11:56:27;;;;;;;0.30;0.30;;;9.20;99.90;;;;;;5033527;28;20276;-66
2020/12/14 11:58:53;;;;;;;0.30;0.30;;;9.20;99.90;;;;;;5039821;28;20416;-67
2020/12/14 12:01:23;;;;;;;0.40;0.40;;;9.20;99.90;;;;;;5052565;28;20659;-67
2020/12/14 12:03:49;;;;;;;0.30;0.30;;;9.20;99.90;;;;;;5044864;28;20165;-66
2020/12/14 12:06:16;;;;;;;0.40;0.40;;;9.30;99.90;;;;;;5032240;28;20174;-66
2020/12/14 12:08:41;;;;;;;0.30;0.30;;;9.20;99.90;;;;;;5035982;28;20425;-67
2020/12/14 12:11:09;;;;;;;0.60;0.60;;;9.20;99.90;;;;;;5032092;28;20178;-67
2020/12/14 12:13:36;;;;;;;0.30;0.30;;;9.20;99.90;;;;;;5036912;28;20187;-67
2020/12/14 12:16:04;;;;;;;0.30;0.30;;;9.30;99.90;;;;;;5052157;28;20687;-67
2020/12/14 12:18:29;;;;;;;0.30;0.30;;;9.40;99.90;;;;;;5048739;28;20567;-65
2020/12/14 12:20:55;;;;;;;0.30;0.30;;;9.40;99.90;;;;;;5032249;28;20177;-68
2020/12/14 12:23:20;;;;;;;0.30;0.30;;;9.40;99.90;;;;;;5033626;28;20193;-67
2020/12/14 12:25:46;;;;;;;0.50;0.50;;;9.50;99.90;;;;;;5032729;28;20181;-67
2020/12/14 12:28:13;;;;;;;0.40;0.40;;;9.60;99.90;;;;;;5051981;28;20176;-69
2020/12/14 12:30:40;;;;;;;0.30;0.30;;;9.70;99.90;;;;;;5055480;28;20207;-72
2020/12/14 12:33:06;;;;;;;0.60;0.60;;;9.70;99.90;;;;;;5016497;28;20233;-71
2020/12/14 12:35:31;;;;;;;0.40;0.40;;;9.70;99.90;;;;;;5016408;28;20689;-69
2020/12/14 12:37:57;;;;;;;0.50;0.50;;;9.80;99.90;;;;;;5016274;28;20195;-70
2020/12/14 12:40:23;;;;;;;0.30;0.30;;;9.80;99.90;;;;;;5023839;28;20170;-70
2020/12/14 12:42:49;;;;;;;0.37;0.37;;;9.80;99.90;;;;;;5035834;28;20194;-71
2020/12/14 12:45:14;;;;;;;1.03;1.03;;;9.80;99.90;;;;;;5036166;28;20170;-70
2020/12/14 12:47:40;;;;;;;0.30;0.30;;;9.90;99.90;;;;;;5036144;28;20543;-67
2020/12/14 12:50:06;;;;;;;0.30;0.30;;;10.00;99.90;;;;;;5035383;28;20537;-67
2020/12/14 12:52:32;;;;;;;1.13;0.80;;;10.00;99.90;;;;;;5035113;28;20198;-69
2020/12/14 12:54:57;;;;;;;1.85;1.75;;;10.00;99.90;;;;;;5051190;28;20195;-66
2020/12/14 12:57:23;;;;;;;0.50;0.50;;;10.00;99.90;;;;;;5055655;28;20173;-69